Time;durP1;ratioP1;P1;durP2;ratioP2;P2;SDS_P1;SDS_P2;PMS_P1;PMS_P2;Temp;Humidity;BMP_temperature;BMP_pressure;BME280_temperature;BME280_humidity;BME280_pressure;Samples;Min_cycle;Max_cycle;Signal;HPM_P1;HPM_P2
2023/03/13 00:01:16;;;;;;;1.77;1.40;;;;;;;-3.26;76.42;146523.53;5015518;28;20042;-67
2023/03/13 00:03:42;;;;;;;1.48;1.30;;;;;;;-3.29;77.31;146517.25;5021555;28;20048;-68
2023/03/13 00:06:08;;;;;;;1.67;1.30;;;;;;;-3.31;76.43;146512.13;5026554;28;20033;-68
2023/03/13 00:08:33;;;;;;;1.65;1.27;;;;;;;-3.13;76.92;146557.78;5020116;28;20045;-67
2023/03/13 00:11:06;;;;;;;1.65;1.30;;;;;;;-3.15;77.81;146552.72;5024548;28;20026;-67
2023/03/13 00:13:38;;;;;;;1.58;1.30;;;;;;;-3.08;76.29;146569.19;5027221;28;20022;-69
2023/03/13 00:16:08;;;;;;;1.30;1.20;;;;;;;-3.13;77.28;146557.78;5016549;28;20064;-67
2023/03/13 00:18:34;;;;;;;2.13;1.42;;;;;;;-3.07;77.57;146570.47;5024837;28;20033;-67
2023/03/13 00:21:05;;;;;;;1.05;1.05;;;;;;;-3.16;76.57;146550.19;5023538;28;20100;-66
2023/03/13 00:23:35;;;;;;;2.08;1.30;;;;;;;-3.32;76.08;146510.88;5019029;28;20022;-68
2023/03/13 00:26:04;;;;;;;1.52;1.40;;;;;;;-3.23;76.67;146531.19;5025539;28;20030;-69
2023/03/13 00:28:32;;;;;;;2.75;1.40;;;;;;;-3.06;75.95;146574.28;5035582;28;20089;-66
2023/03/13 00:31:12;;;;;;;1.58;1.30;;;;;;;-3.16;76.49;146548.94;5032815;28;20026;-66
2023/03/13 00:33:41;;;;;;;1.60;1.45;;;;;;;-3.23;76.07;146532.44;5025773;28;20042;-66
2023/03/13 00:36:11;;;;;;;2.90;1.45;;;;;;;-3.23;75.69;146532.44;5019042;28;20041;-67
2023/03/13 00:38:37;;;;;;;2.65;1.60;;;;;;;-3.12;76.06;146560.31;5025464;28;20070;-68
2023/03/13 00:41:13;;;;;;;1.90;1.23;;;;;;;-3.25;75.94;146527.38;5015128;28;20025;-69
2023/03/13 00:43:41;;;;;;;2.83;1.50;;;;;;;-3.26;74.87;146523.53;5021540;28;20084;-68
2023/03/13 00:46:10;;;;;;;1.40;1.20;;;;;;;-3.22;76.11;146533.69;5014575;28;20026;-68
2023/03/13 00:48:38;;;;;;;1.75;1.30;;;;;;;-3.26;75.54;146523.53;5012844;28;20029;-67
2023/03/13 00:51:05;;;;;;;1.85;1.38;;;;;;;-3.24;76.73;146529.88;5023200;28;20231;-67
2023/03/13 00:53:37;;;;;;;1.50;1.20;;;;;;;-3.16;75.52;146548.94;5017576;28;20045;-68
2023/03/13 00:56:08;;;;;;;1.90;1.40;;;;;;;-3.49;76.31;146469.06;5021628;28;20057;-68
2023/03/13 00:58:36;;;;;;;2.50;1.50;;;;;;;-3.36;76.23;146499.50;5013692;28;20051;-68
2023/03/13 01:01:21;;;;;;;1.95;1.63;;;;;;;-3.35;75.13;146502.00;5014837;28;20065;-67
2023/03/13 01:03:50;;;;;;;2.78;1.50;;;;;;;-3.27;75.19;146522.28;5017789;28;20032;-69
2023/03/13 01:06:19;;;;;;;2.50;1.70;;;;;;;-3.28;75.61;146519.75;5021127;28;20028;-69
2023/03/13 01:08:45;;;;;;;3.08;1.30;;;;;;;-3.28;74.84;146519.75;5023457;28;20057;-68
2023/03/13 01:11:17;;;;;;;2.38;1.45;;;;;;;-3.25;74.90;146527.38;5013253;28;20039;-68
2023/03/13 01:13:43;;;;;;;1.73;1.30;;;;;;;-3.17;75.05;146546.38;5020072;28;20105;-67
2023/03/13 01:16:12;;;;;;;1.20;1.08;;;;;;;-3.34;73.93;146504.53;5013434;28;20100;-67
2023/03/13 01:18:39;;;;;;;1.58;1.30;;;;;;;-3.49;74.23;146467.81;5017514;28;20093;-67
2023/03/13 01:21:05;;;;;;;1.80;1.30;;;;;;;-3.20;73.95;146540.03;5022609;28;20258;-67
2023/03/13 01:23:32;;;;;;;1.90;1.35;;;;;;;-3.18;74.77;146543.84;5012026;28;20022;-67
2023/03/13 01:25:57;;;;;;;1.75;1.15;;;;;;;-3.17;74.62;146546.38;5023381;28;20127;-67
2023/03/13 01:28:25;;;;;;;2.17;1.20;;;;;;;-3.21;74.52;146537.47;5016762;28;20072;-67
2023/03/13 01:30:51;;;;;;;1.92;1.30;;;;;;;-3.30;74.22;146515.94;5023064;28;20191;-67
2023/03/13 01:33:17;;;;;;;1.55;1.45;;;;;;;-3.39;73.98;146491.84;5020466;28;20085;-66
2023/03/13 01:35:43;;;;;;;1.42;1.23;;;;;;;-3.26;74.69;146523.53;5011743;28;20210;-68
2023/03/13 01:38:09;;;;;;;1.48;1.38;;;;;;;-3.18;75.11;146543.84;5017024;28;20036;-66
2023/03/13 01:40:42;;;;;;;2.20;1.52;;;;;;;-3.23;75.29;146531.19;5009820;28;20038;-67
2023/03/13 01:43:17;;;;;;;1.70;1.30;;;;;;;-3.38;73.85;146495.66;5013203;28;20022;-67
2023/03/13 01:45:57;;;;;;;1.40;1.30;;;;;;;-3.34;74.13;146504.53;5004805;28;20041;-67
2023/03/13 01:49:02;;;;;;;1.48;1.17;;;;;;;-3.32;75.21;146509.59;5012571;28;20580;-67
2023/03/13 01:51:32;;;;;;;1.55;1.40;;;;;;;-3.43;75.23;146483.00;5009347;28;20329;-68
2023/03/13 01:54:07;;;;;;;1.90;1.20;;;;;;;-3.56;73.95;146450.03;5023629;28;20048;-67
2023/03/13 01:56:47;;;;;;;2.85;1.42;;;;;;;-3.57;76.58;146448.78;5017949;28;20097;-67
2023/03/13 01:59:17;;;;;;;3.00;1.27;;;;;;;-3.55;74.87;146453.88;5004343;28;20034;-69
2023/03/13 02:01:46;;;;;;;2.92;1.30;;;;;;;-3.50;74.36;146465.25;5019394;28;20060;-67
2023/03/13 02:04:15;;;;;;;1.40;1.20;;;;;;;-3.47;73.92;146474.09;5024013;28;20056;-68
2023/03/13 02:06:45;;;;;;;2.55;1.20;;;;;;;-3.59;74.82;146442.44;5016455;28;20279;-67
2023/03/13 02:09:20;;;;;;;1.15;1.02;;;;;;;-3.54;75.60;146455.13;5020564;28;20349;-68
2023/03/13 02:12:02;;;;;;;1.40;1.15;;;;;;;-3.45;74.58;146476.66;5022887;28;20218;-68
2023/03/13 02:14:31;;;;;;;1.45;1.20;;;;;;;-3.49;75.58;146469.06;5047925;28;20037;-68
2023/03/13 02:16:56;;;;;;;1.50;1.20;;;;;;;-3.48;75.82;146470.31;5022810;28;20029;-66
2023/03/13 02:19:44;;;;;;;2.08;1.23;;;;;;;-3.54;75.44;146455.13;5014016;28;20322;-67
2023/03/13 02:22:38;;;;;;;2.10;1.23;;;;;;;-3.73;74.69;146409.50;5021516;28;20018;-67
2023/03/13 02:25:34;;;;;;;1.02;1.00;;;;;;;-3.70;74.59;146415.84;5002852;28;20243;-66
2023/03/13 02:28:34;;;;;;;2.33;1.25;;;;;;;-3.97;75.97;146348.69;5012864;28;20085;-67
2023/03/13 02:31:00;;;;;;;1.98;1.20;;;;;;;-3.86;75.83;146376.56;5021360;28;20044;-67
2023/03/13 02:33:32;;;;;;;2.08;1.40;;;;;;;-3.67;76.93;146424.69;5021781;28;20034;-66
2023/03/13 02:36:01;;;;;;;1.58;1.23;;;;;;;-3.64;75.67;146432.28;5023024;28;20018;-66
2023/03/13 02:38:29;;;;;;;2.10;1.20;;;;;;;-3.74;75.22;146406.94;5013912;28;20092;-66
2023/03/13 02:40:56;;;;;;;1.52;1.15;;;;;;;-3.75;76.30;146404.41;5021057;28;20037;-66
2023/03/13 02:43:28;;;;;;;1.58;1.40;;;;;;;-3.74;76.65;146406.94;5011503;28;20056;-67
2023/03/13 02:46:01;;;;;;;;;;;;;;;-3.74;76.17;146406.94;5015004;28;20200;-67
2023/03/13 02:48:59;;;;;;;0.98;0.90;;;;;;;-3.95;76.52;146355.00;5009137;28;19906;-66
2023/03/13 02:51:33;;;;;;;1.85;1.40;;;;;;;-3.83;76.08;146385.41;5021989;28;20041;-66
2023/03/13 02:54:04;;;;;;;1.63;1.30;;;;;;;-3.95;76.33;146355.00;5009492;28;20046;-66
2023/03/13 02:56:32;;;;;;;;;;;;;;;-3.84;76.05;146381.63;5022334;28;20065;-66
2023/03/13 02:58:57;;;;;;;1.45;1.10;;;;;;;-3.79;76.27;146394.31;5021410;28;19913;-66
2023/03/13 03:01:23;;;;;;;2.30;1.30;;;;;;;-3.85;76.89;146379.06;5011278;28;20049;-66
2023/03/13 03:03:48;;;;;;;4.18;1.40;;;;;;;-3.81;75.91;146390.47;5023156;28;20021;-67
2023/03/13 03:06:14;;;;;;;1.90;1.33;;;;;;;-3.89;75.27;146368.94;5025410;28;20160;-67
2023/03/13 03:08:42;;;;;;;1.52;1.42;;;;;;;-3.93;76.59;146358.78;5031772;28;20060;-66
2023/03/13 03:11:08;;;;;;;1.30;1.08;;;;;;;-3.80;76.04;146391.75;5025494;28;20315;-66
2023/03/13 03:13:34;;;;;;;1.70;1.33;;;;;;;-3.96;75.46;146351.19;5010842;28;20105;-66
2023/03/13 03:16:05;;;;;;;2.25;1.50;;;;;;;-3.99;76.59;146346.16;5019064;28;20033;-67
2023/03/13 03:18:30;;;;;;;2.55;1.30;;;;;;;-4.04;76.52;146333.47;5018292;28;20030;-67
2023/03/13 03:20:56;;;;;;;2.03;1.30;;;;;;;-3.88;75.25;146372.72;5015007;28;20101;-66
2023/03/13 03:23:21;;;;;;;2.38;1.60;;;;;;;-3.94;76.05;146357.53;5006372;28;20033;-67
2023/03/13 03:25:47;;;;;;;2.17;1.50;;;;;;;-4.07;76.79;146325.88;5022558;28;20247;-68
2023/03/13 03:28:13;;;;;;;1.50;1.23;;;;;;;-3.93;74.90;146360.09;5018555;28;20049;-67
2023/03/13 03:30:38;;;;;;;2.55;1.50;;;;;;;-3.88;75.21;146371.47;5022086;28;20038;-65
2023/03/13 03:33:04;;;;;;;2.58;1.30;;;;;;;-3.85;75.91;146380.38;5029203;28;20095;-65
2023/03/13 03:35:29;;;;;;;1.58;1.48;;;;;;;-4.00;75.94;146343.59;5019108;28;20092;-66
2023/03/13 03:37:55;;;;;;;3.10;1.50;;;;;;;-3.97;75.06;146348.69;5010006;28;20064;-67
2023/03/13 03:40:20;;;;;;;1.95;1.50;;;;;;;-3.96;75.21;146351.19;5017178;28;20342;-66
2023/03/13 03:42:46;;;;;;;2.28;1.38;;;;;;;-3.98;75.47;146347.41;5016441;28;20259;-67
2023/03/13 03:45:12;;;;;;;1.52;1.30;;;;;;;-3.91;76.66;146363.88;5014376;28;20053;-67
2023/03/13 03:47:37;;;;;;;2.28;1.55;;;;;;;-4.02;75.49;146338.56;5018759;28;20025;-67
2023/03/13 03:50:03;;;;;;;3.60;1.48;;;;;;;-4.00;74.61;146343.59;5009230;28;20026;-67
2023/03/13 03:52:28;;;;;;;1.65;1.40;;;;;;;-4.00;76.03;146343.59;5017402;28;20065;-67
2023/03/13 03:54:54;;;;;;;1.88;1.58;;;;;;;-3.88;75.30;146372.72;5014683;28;20072;-65
2023/03/13 03:57:19;;;;;;;2.38;1.45;;;;;;;-3.97;74.27;146349.94;5013484;28;20275;-67
2023/03/13 03:59:45;;;;;;;4.22;1.65;;;;;;;-4.13;75.15;146309.38;5019172;28;20030;-67
2023/03/13 04:02:11;;;;;;;4.40;1.80;;;;;;;-3.93;75.59;146358.78;5018076;28;20030;-66
2023/03/13 04:04:36;;;;;;;5.68;1.70;;;;;;;-3.95;75.44;146353.75;5021480;28;20210;-67
2023/03/13 04:07:02;;;;;;;3.42;1.88;;;;;;;-3.83;75.62;146385.41;5013580;28;20046;-67
2023/03/13 04:09:28;;;;;;;2.97;1.60;;;;;;;-3.94;74.60;146357.53;5013836;28;20041;-68
2023/03/13 04:11:53;;;;;;;5.00;1.95;;;;;;;-3.96;74.59;146352.50;5023518;28;20245;-68
2023/03/13 04:14:19;;;;;;;2.33;1.50;;;;;;;-4.04;74.35;146333.47;5011489;28;20384;-67
2023/03/13 04:16:44;;;;;;;2.65;2.00;;;;;;;-4.02;74.98;146337.25;5014556;28;20026;-69
2023/03/13 04:19:10;;;;;;;5.93;1.70;;;;;;;-4.03;74.81;146336.00;5007702;28;20022;-69
2023/03/13 04:21:35;;;;;;;2.08;1.52;;;;;;;-4.03;74.15;146336.00;5015213;28;20044;-67
2023/03/13 04:24:01;;;;;;;2.42;1.95;;;;;;;-4.14;75.61;146306.88;5027510;28;20076;-66
2023/03/13 04:26:26;;;;;;;2.60;1.67;;;;;;;-3.95;75.56;146355.00;5024703;28;20250;-66
2023/03/13 04:28:52;;;;;;;3.17;1.55;;;;;;;-3.91;74.36;146363.88;5018582;28;20207;-67
2023/03/13 04:31:18;;;;;;;2.03;1.55;;;;;;;-3.85;74.61;146379.06;5029962;28;20037;-66
2023/03/13 04:33:43;;;;;;;3.00;1.73;;;;;;;-3.92;73.72;146362.63;5021383;28;20060;-66
2023/03/13 04:36:09;;;;;;;2.30;1.27;;;;;;;-3.93;74.26;146358.78;5007497;28;20149;-67
2023/03/13 04:38:34;;;;;;;2.30;1.50;;;;;;;-4.15;74.30;146305.59;5005875;28;20120;-67
2023/03/13 04:41:00;;;;;;;2.53;1.88;;;;;;;-4.18;75.48;146299.25;5011828;28;20033;-67
2023/03/13 04:43:25;;;;;;;2.10;1.40;;;;;;;-4.03;75.09;146336.00;5027057;28;20041;-67
2023/03/13 04:45:55;;;;;;;1.70;1.40;;;;;;;-4.17;73.92;146300.53;5027280;28;20026;-67
2023/03/13 04:48:20;;;;;;;1.95;1.67;;;;;;;-3.96;73.35;146351.19;5023032;28;20034;-67
2023/03/13 04:50:47;;;;;;;2.97;1.92;;;;;;;-3.88;73.34;146372.72;5011223;28;20036;-68
2023/03/13 04:53:13;;;;;;;3.90;1.73;;;;;;;-3.84;74.90;146381.63;5006592;28;20379;-66
2023/03/13 04:55:39;;;;;;;1.85;1.50;;;;;;;-3.85;73.57;146379.06;5031032;28;20117;-67
2023/03/13 04:58:05;;;;;;;5.05;1.92;;;;;;;-3.84;74.04;146381.63;5027290;28;20063;-68
2023/03/13 05:00:30;;;;;;;3.47;1.88;;;;;;;-3.84;73.67;146382.88;5029860;28;20029;-68
2023/03/13 05:02:56;;;;;;;2.55;1.63;;;;;;;-3.81;72.86;146390.47;5032012;28;20056;-67
2023/03/13 05:05:21;;;;;;;2.20;1.80;;;;;;;-3.85;73.55;146379.06;5030685;28;20267;-68
2023/03/13 05:07:47;;;;;;;1.88;1.42;;;;;;;-3.88;74.17;146371.47;5033873;28;20282;-66
2023/03/13 05:10:12;;;;;;;3.40;1.60;;;;;;;-3.86;73.21;146377.81;5034450;28;20037;-67
2023/03/13 05:12:38;;;;;;;3.67;1.80;;;;;;;-3.85;72.90;146380.38;5039604;28;20041;-65
2023/03/13 05:15:04;;;;;;;5.32;1.90;;;;;;;-3.76;72.45;146400.59;5024027;28;20021;-67
2023/03/13 05:17:29;;;;;;;2.10;1.80;;;;;;;-3.75;72.66;146404.41;5014117;28;20029;-68
2023/03/13 05:19:55;;;;;;;2.08;1.75;;;;;;;-3.74;73.53;146406.94;5023987;28;20163;-67
2023/03/13 05:22:20;;;;;;;3.92;1.80;;;;;;;-3.89;73.57;146370.22;5023147;28;20026;-68
2023/03/13 05:24:46;;;;;;;3.53;1.65;;;;;;;-3.82;72.97;146386.66;5034358;28;20025;-67
2023/03/13 05:27:11;;;;;;;4.43;1.73;;;;;;;-3.88;72.94;146371.47;5032861;28;20040;-67
2023/03/13 05:29:37;;;;;;;4.00;1.67;;;;;;;-3.72;72.32;146410.75;5015442;28;20318;-66
2023/03/13 05:32:03;;;;;;;1.73;1.55;;;;;;;-3.83;72.92;146384.16;5037255;28;20041;-67
2023/03/13 05:34:29;;;;;;;2.97;1.70;;;;;;;-3.78;72.72;146396.81;5016457;28;20026;-68
2023/03/13 05:36:54;;;;;;;8.13;1.80;;;;;;;-3.67;72.09;146423.44;5022673;28;20040;-68
2023/03/13 05:39:20;;;;;;;2.45;1.98;;;;;;;-3.64;70.98;146431.03;5022583;28;20033;-68
2023/03/13 05:41:45;;;;;;;2.50;1.40;;;;;;;-3.56;70.62;146450.03;5016322;28;20041;-66
2023/03/13 05:44:11;;;;;;;3.28;2.45;;;;;;;-3.48;72.22;146471.59;5022284;28;20026;-67
2023/03/13 05:46:36;;;;;;;2.20;1.60;;;;;;;-3.64;70.41;146432.28;5013985;28;20022;-67
2023/03/13 05:49:02;;;;;;;1.92;1.60;;;;;;;-3.43;69.82;146483.00;5022363;28;20029;-68
2023/03/13 05:51:27;;;;;;;3.28;1.60;;;;;;;-3.42;69.43;146484.25;5021473;28;20038;-68
2023/03/13 05:53:53;;;;;;;3.40;1.63;;;;;;;-3.23;69.44;146531.19;5016659;28;20112;-68
2023/03/13 05:56:18;;;;;;;2.13;1.52;;;;;;;-3.39;70.03;146493.16;5020187;28;20038;-67
2023/03/13 05:58:44;;;;;;;2.22;1.80;;;;;;;-3.35;69.37;146502.00;5034863;28;20313;-68
2023/03/13 06:01:12;;;;;;;2.92;1.60;;;;;;;-3.27;70.22;146521.03;5021198;28;20299;-67
2023/03/13 06:03:38;;;;;;;3.03;1.70;;;;;;;-3.17;69.09;146547.63;5023824;28;20033;-68
2023/03/13 06:06:03;;;;;;;3.25;1.85;;;;;;;-3.18;68.19;146543.84;5024087;28;20029;-68
2023/03/13 06:08:29;;;;;;;3.35;1.80;;;;;;;-2.98;68.62;146593.28;5020899;28;20068;-68
2023/03/13 06:10:58;;;;;;;3.72;1.83;;;;;;;-2.83;70.47;146630.06;5012365;28;20029;-68
2023/03/13 06:13:24;;;;;;;2.90;1.88;;;;;;;-2.83;67.64;146630.06;5020368;28;20306;-66
2023/03/13 06:15:54;;;;;;;4.32;1.85;;;;;;;-2.87;67.20;146621.19;5017716;28;20022;-67
2023/03/13 06:18:20;;;;;;;3.25;2.20;;;;;;;-2.87;67.10;146621.19;5018921;28;20088;-67
2023/03/13 06:20:45;;;;;;;1.70;1.30;;;;;;;-2.72;68.40;146656.69;5025805;28;20040;-67
2023/03/13 06:23:11;;;;;;;2.83;1.70;;;;;;;-2.68;67.74;146666.84;5008890;28;20026;-67
2023/03/13 06:25:37;;;;;;;4.53;1.73;;;;;;;-2.47;69.23;146718.84;5023455;28;20057;-69
2023/03/13 06:28:03;;;;;;;2.30;1.40;;;;;;;-2.02;64.84;146829.22;5016085;28;20097;-68
2023/03/13 06:30:28;;;;;;;1.77;1.55;;;;;;;-1.30;62.85;147008.22;5018690;28;20036;-69
2023/03/13 06:32:54;;;;;;;2.47;1.70;;;;;;;-0.78;62.47;147136.53;5023841;28;20056;-69
2023/03/13 06:35:19;;;;;;;2.72;1.50;;;;;;;-0.95;61.93;147094.59;5005703;28;20164;-69
2023/03/13 06:37:45;;;;;;;8.93;1.90;;;;;;;-0.64;61.76;147170.84;5016408;28;20025;-69
2023/03/13 06:40:11;;;;;;;3.00;1.80;;;;;;;-0.31;62.19;147252.19;5019542;28;20210;-68
2023/03/13 06:42:38;;;;;;;3.70;1.85;;;;;;;-0.11;60.84;147300.50;5019915;28;20034;-68
2023/03/13 06:45:04;;;;;;;4.22;1.92;;;;;;;0.26;57.90;147392.03;5022182;28;20033;-67
2023/03/13 06:47:31;;;;;;;3.17;1.80;;;;;;;-0.13;57.32;147296.63;5010442;28;20041;-69
2023/03/13 06:49:57;;;;;;;4.32;2.33;;;;;;;0.84;56.27;147535.72;5018604;28;20345;-69
2023/03/13 06:52:23;;;;;;;4.25;1.95;;;;;;;1.24;53.17;147633.72;5013411;28;20053;-68
2023/03/13 06:54:48;;;;;;;4.38;1.88;;;;;;;1.61;56.23;147726.66;5014669;28;20113;-68
2023/03/13 06:57:14;;;;;;;3.10;2.15;;;;;;;1.77;53.83;147766.13;5022511;28;20080;-70
2023/03/13 06:59:40;;;;;;;3.53;2.00;;;;;;;2.09;52.16;147843.81;5009959;28;20353;-69
2023/03/13 07:02:05;;;;;;;5.70;2.40;;;;;;;2.70;51.75;147995.41;5017643;28;20230;-68
2023/03/13 07:04:31;;;;;;;4.13;2.50;;;;;;;1.75;51.22;147759.75;5023380;28;20033;-68
2023/03/13 07:06:57;;;;;;;4.32;2.28;;;;;;;2.94;53.43;148056.56;5017549;28;20026;-68
2023/03/13 07:09:22;;;;;;;4.60;1.80;;;;;;;3.33;53.28;148152.16;5021431;28;20064;-69
2023/03/13 07:11:48;;;;;;;4.57;2.03;;;;;;;3.65;48.52;148229.94;5010548;28;20068;-69
2023/03/13 07:14:13;;;;;;;3.00;1.73;;;;;;;3.72;51.76;148247.81;5017057;28;20144;-69
2023/03/13 07:16:39;;;;;;;2.33;1.75;;;;;;;4.12;51.88;148347.34;5011447;28;20195;-69
2023/03/13 07:19:05;;;;;;;4.60;1.90;;;;;;;3.63;48.75;148227.44;5015502;28;20052;-68
2023/03/13 07:21:30;;;;;;;2.83;1.83;;;;;;;3.78;49.69;148264.41;5005763;28;20249;-68
2023/03/13 07:23:56;;;;;;;2.42;1.73;;;;;;;2.94;48.06;148056.56;5012936;28;20033;-68
2023/03/13 07:26:21;;;;;;;6.15;2.20;;;;;;;2.63;51.01;147977.56;5024429;28;20026;-69
2023/03/13 07:28:47;;;;;;;4.45;1.85;;;;;;;3.15;51.84;148106.28;5010348;28;20030;-68
2023/03/13 07:31:18;;;;;;;3.42;1.90;;;;;;;2.49;52.38;147944.41;5025942;28;20029;-69
2023/03/13 07:33:44;;;;;;;2.58;1.75;;;;;;;2.80;48.96;148019.63;5018765;28;20034;-68
2023/03/13 07:36:12;;;;;;;2.75;1.67;;;;;;;2.35;50.60;147908.75;5011810;28;20341;-69
2023/03/13 07:38:37;;;;;;;4.32;1.90;;;;;;;2.62;51.94;147976.28;5015858;28;20038;-69
2023/03/13 07:41:03;;;;;;;4.68;1.80;;;;;;;2.79;49.60;148017.06;5007773;28;20215;-67
2023/03/13 07:43:30;;;;;;;5.72;1.83;;;;;;;2.20;48.90;147871.84;5012649;28;20065;-68
2023/03/13 07:46:01;;;;;;;4.22;1.85;;;;;;;2.32;54.07;147902.38;5020824;28;20057;-68
2023/03/13 07:48:31;;;;;;;3.50;1.90;;;;;;;2.06;51.70;147837.44;5015848;28;20034;-68
2023/03/13 07:50:57;;;;;;;1.85;1.50;;;;;;;1.53;53.67;147707.53;5021544;28;20049;-68
2023/03/13 07:53:23;;;;;;;2.65;1.77;;;;;;;1.24;55.19;147633.72;5025784;28;20101;-67
2023/03/13 07:55:59;;;;;;;8.15;1.85;;;;;;;0.84;54.26;147535.72;5019257;28;20054;-68
2023/03/13 07:58:28;;;;;;;2.55;1.40;;;;;;;0.58;54.37;147472.13;5017001;28;20404;-69
2023/03/13 08:00:54;;;;;;;4.45;1.70;;;;;;;0.43;55.65;147435.25;5014962;28;20034;-70
2023/03/13 08:03:21;;;;;;;4.07;1.52;;;;;;;0.19;55.37;147375.47;5023175;28;20057;-67
2023/03/13 08:05:46;;;;;;;2.03;1.50;;;;;;;0.08;55.75;147348.75;5026348;28;20033;-68
2023/03/13 08:08:12;;;;;;;5.10;1.90;;;;;;;0.27;56.54;147394.53;5017837;28;20018;-66
2023/03/13 08:10:38;;;;;;;4.93;1.60;;;;;;;0.10;56.16;147352.56;5026337;28;20025;-68
2023/03/13 08:13:03;;;;;;;2.97;1.65;;;;;;;0.28;55.62;147397.09;5019972;28;20041;-68
2023/03/13 08:15:29;;;;;;;2.28;1.60;;;;;;;0.73;55.87;147507.72;5023261;28;20342;-68
2023/03/13 08:17:55;;;;;;;3.55;1.70;;;;;;;1.06;56.16;147589.19;5026288;28;20076;-67
2023/03/13 08:20:21;;;;;;;2.03;1.42;;;;;;;1.22;55.80;147629.91;5017165;28;20053;-67
2023/03/13 08:22:47;;;;;;;5.13;2.05;;;;;;;1.10;56.73;147600.66;5025311;28;20025;-67
2023/03/13 08:25:13;;;;;;;4.70;2.10;;;;;;;0.75;55.96;147514.09;5025686;28;20105;-68
2023/03/13 08:27:39;;;;;;;4.40;1.48;;;;;;;1.28;56.85;147645.16;5024637;28;20034;-69
2023/03/13 08:30:05;;;;;;;4.20;1.23;;;;;;;1.17;56.13;147618.47;5025749;28;20191;-69
2023/03/13 08:32:37;;;;;;;2.00;1.30;;;;;;;1.72;57.96;147753.38;5034823;28;20025;-69
2023/03/13 08:35:03;;;;;;;1.80;1.48;;;;;;;1.29;56.54;147647.72;5023549;28;20303;-70
2023/03/13 08:37:29;;;;;;;2.10;1.30;;;;;;;1.02;57.08;147580.28;5035021;28;20087;-67
2023/03/13 08:39:55;;;;;;;3.75;1.50;;;;;;;1.54;57.75;147710.09;5024112;28;20025;-68
2023/03/13 08:42:22;;;;;;;4.80;1.40;;;;;;;1.48;56.06;147693.53;5025270;28;20372;-68
2023/03/13 08:44:48;;;;;;;3.65;1.63;;;;;;;1.60;56.68;147724.09;5016532;28;20064;-69
2023/03/13 08:47:14;;;;;;;5.50;1.67;;;;;;;1.43;56.04;147680.84;5023690;28;20084;-69
2023/03/13 08:49:39;;;;;;;2.05;1.40;;;;;;;1.49;57.90;147697.34;5015247;28;20029;-69
2023/03/13 08:52:06;;;;;;;3.63;1.85;;;;;;;1.66;54.61;147739.38;5023132;28;20044;-68
2023/03/13 08:54:32;;;;;;;3.90;1.58;;;;;;;1.63;59.30;147730.47;5023733;28;20129;-67
2023/03/13 08:57:01;;;;;;;4.32;1.48;;;;;;;1.76;59.11;147762.31;5017879;28;20041;-68
2023/03/13 08:59:27;;;;;;;2.10;1.50;;;;;;;1.66;56.44;147739.38;5023674;28;20033;-69
2023/03/13 09:01:52;;;;;;;10.52;3.47;;;;;;;1.88;56.93;147792.84;5016614;28;20084;-68
2023/03/13 09:04:19;;;;;;;3.28;1.70;;;;;;;2.18;59.89;147868.00;5025120;28;20041;-69
2023/03/13 09:06:44;;;;;;;3.33;2.03;;;;;;;1.46;56.27;147688.47;5021880;28;20041;-68
2023/03/13 09:09:11;;;;;;;3.45;1.92;;;;;;;0.69;57.58;147498.84;5019463;28;20030;-67
2023/03/13 09:11:38;;;;;;;3.67;1.75;;;;;;;1.45;57.51;147685.91;5024198;28;20068;-69
2023/03/13 09:14:04;;;;;;;5.75;2.00;;;;;;;1.24;58.03;147633.72;5015960;28;20025;-68
2023/03/13 09:16:32;;;;;;;3.78;1.77;;;;;;;1.43;59.10;147682.09;5022863;28;20025;-69
2023/03/13 09:18:58;;;;;;;3.20;1.67;;;;;;;0.99;59.70;147573.91;5019100;28;20036;-69
2023/03/13 09:21:27;;;;;;;3.65;1.60;;;;;;;0.83;59.57;147533.22;5020089;28;20053;-68
2023/03/13 09:23:52;;;;;;;2.15;1.50;;;;;;;1.00;59.45;147576.47;5024200;28;20087;-69
2023/03/13 09:26:19;;;;;;;2.33;1.67;;;;;;;0.77;60.75;147517.91;5024829;28;20049;-71
2023/03/13 09:28:45;;;;;;;3.20;1.92;;;;;;;0.67;61.45;147493.75;5022193;28;20279;-68
2023/03/13 09:31:18;;;;;;;2.47;1.70;;;;;;;0.86;61.15;147540.84;5025046;28;20090;-68
2023/03/13 09:33:46;;;;;;;2.55;1.50;;;;;;;1.08;61.21;147595.53;5022796;28;20338;-68
2023/03/13 09:36:12;;;;;;;4.38;1.88;;;;;;;1.14;62.62;147610.84;5024632;28;20072;-69
2023/03/13 09:38:38;;;;;;;3.67;1.83;;;;;;;1.08;61.48;147594.28;5014453;28;20042;-68
2023/03/13 09:41:16;;;;;;;3.63;1.80;;;;;;;0.95;61.82;147562.47;5022371;28;20042;-69
2023/03/13 09:43:51;;;;;;;1.60;1.40;;;;;;;0.85;62.24;147539.53;5034559;28;20033;-68
2023/03/13 09:46:35;;;;;;;5.60;1.98;;;;;;;0.78;63.16;147521.72;5022150;28;20033;-68
2023/03/13 09:49:33;;;;;;;4.53;1.80;;;;;;;0.28;62.49;147398.34;5019372;28;20041;-69
2023/03/13 09:52:21;;;;;;;3.40;1.80;;;;;;;0.36;65.31;147417.47;5020620;28;20049;-69
2023/03/13 09:55:04;;;;;;;2.60;1.75;;;;;;;0.56;66.19;147465.81;5020036;28;20222;-67
2023/03/13 09:57:37;;;;;;;2.88;1.90;;;;;;;0.60;65.54;147475.94;5017819;28;20056;-67
2023/03/13 10:00:18;;;;;;;3.20;2.08;;;;;;;0.57;66.65;147468.31;5023015;28;20048;-67
2023/03/13 10:03:25;;;;;;;3.47;2.10;;;;;;;0.57;67.35;147468.31;5005251;28;20095;-68
2023/03/13 10:05:57;;;;;;;3.00;1.90;;;;;;;0.50;67.11;147453.06;5021020;28;20628;-68
2023/03/13 10:08:29;;;;;;;3.25;2.05;;;;;;;0.50;68.25;147451.81;5012358;28;20055;-67
2023/03/13 10:11:10;;;;;;;4.03;2.10;;;;;;;0.22;68.22;147383.09;5012022;28;20034;-68
2023/03/13 10:14:09;;;;;;;3.63;2.15;;;;;;;0.38;68.03;147422.53;5009100;28;20100;-68
2023/03/13 10:16:46;;;;;;;3.45;2.05;;;;;;;0.06;69.10;147343.69;5013657;28;20030;-67
2023/03/13 10:19:15;;;;;;;3.80;2.13;;;;;;;-0.12;69.09;147299.19;5017508;28;20030;-67
2023/03/13 10:21:46;;;;;;;3.70;2.00;;;;;;;0.11;68.49;147356.38;5016584;28;20038;-69
2023/03/13 10:24:53;;;;;;;4.50;1.90;;;;;;;-0.12;68.15;147299.19;5024884;28;20332;-67
2023/03/13 10:27:19;;;;;;;4.78;2.40;;;;;;;0.06;68.88;147343.69;5002878;28;20149;-68
2023/03/13 10:29:44;;;;;;;3.55;1.77;;;;;;;0.07;67.94;147344.97;5037679;28;20136;-67
2023/03/13 10:32:13;;;;;;;3.10;2.03;;;;;;;-0.14;67.19;147294.13;5026504;28;20601;-66
2023/03/13 10:34:52;;;;;;;3.05;1.98;;;;;;;-0.18;69.50;147283.94;5019869;28;20049;-67
2023/03/13 10:37:31;;;;;;;3.05;1.80;;;;;;;-0.16;70.05;147289.00;5016201;28;20242;-68
2023/03/13 10:40:29;;;;;;;3.85;2.10;;;;;;;-0.23;70.18;147272.53;5015508;28;20081;-68
2023/03/13 10:43:06;;;;;;;3.53;2.33;;;;;;;-0.35;70.84;147243.25;5018425;28;20060;-68
2023/03/13 10:45:36;;;;;;;4.40;2.00;;;;;;;-0.31;70.41;147252.19;5013820;28;20029;-68
2023/03/13 10:48:14;;;;;;;3.97;2.03;;;;;;;-0.08;71.78;147309.38;5019880;28;20017;-67
2023/03/13 10:50:45;;;;;;;4.25;2.35;;;;;;;0.03;71.61;147334.78;5009804;28;20036;-69
2023/03/13 10:53:29;;;;;;;3.17;2.00;;;;;;;0.16;71.20;147369.13;5017916;28;20032;-68
2023/03/13 10:56:04;;;;;;;3.92;2.20;;;;;;;-0.06;71.91;147313.16;5030636;28;20049;-69
2023/03/13 10:58:35;;;;;;;3.15;2.10;;;;;;;-0.33;72.24;147245.81;5012453;28;20057;-68
2023/03/13 11:01:16;;;;;;;3.13;2.27;;;;;;;-0.12;71.84;147297.94;5024623;28;20030;-68
2023/03/13 11:03:42;;;;;;;3.45;2.28;;;;;;;0.06;72.34;147342.41;5031423;28;20516;-68
2023/03/13 11:06:27;;;;;;;6.63;2.72;;;;;;;-0.02;73.75;147324.59;5022997;28;20048;-69
2023/03/13 11:09:12;;;;;;;4.07;2.30;;;;;;;-0.43;74.86;147222.97;5002215;28;20022;-68
2023/03/13 11:12:00;;;;;;;3.70;2.53;;;;;;;-0.24;76.57;147269.97;5018639;28;20105;-68
2023/03/13 11:14:26;;;;;;;6.05;2.80;;;;;;;-0.40;77.60;147229.28;5031777;28;20037;-68
2023/03/13 11:16:57;;;;;;;4.30;2.33;;;;;;;-0.40;78.34;147229.28;5023912;28;20022;-67
2023/03/13 11:19:29;;;;;;;;;;;;;;;-0.21;77.24;147277.59;5004097;28;20030;-68
2023/03/13 11:22:06;;;;;;;4.10;2.73;;;;;;;-0.07;77.28;147310.63;5006823;28;19941;-68
2023/03/13 11:25:02;;;;;;;5.70;2.80;;;;;;;-0.23;79.25;147272.53;5014171;28;20462;-68
2023/03/13 11:28:09;;;;;;;3.90;2.03;;;;;;;-0.58;77.18;147184.81;5013583;28;20538;-68
2023/03/13 11:31:07;;;;;;;5.07;2.70;;;;;;;-0.21;75.91;147276.34;5019797;28;20049;-69
2023/03/13 11:33:56;;;;;;;3.20;2.30;;;;;;;-0.07;75.02;147310.63;5013431;28;20033;-70
2023/03/13 11:36:45;;;;;;;4.35;2.40;;;;;;;0.12;73.63;147358.94;5032387;28;20490;-68
2023/03/13 11:39:16;;;;;;;5.97;2.55;;;;;;;0.09;72.24;147351.31;5031488;28;20045;-67
2023/03/13 11:42:33;;;;;;;7.15;2.97;;;;;;;0.00;71.09;147328.47;5030424;28;20043;-67